createdAt,value
2022-12-18T00:02:53.086Z,100700.12
2022-12-18T00:06:07.927Z,100721.56
2022-12-18T00:09:14.340Z,100716.88
2022-12-18T00:12:20.852Z,100733.61
2022-12-18T00:15:26.003Z,100737.32
2022-12-18T00:18:31.090Z,100737.67
2022-12-18T00:21:36.544Z,100753.81
2022-12-18T00:24:42.481Z,100747.42
2022-12-18T00:27:50.537Z,100761.17
2022-12-18T00:30:59.817Z,100761.42
2022-12-18T00:34:06.648Z,100763.66
2022-12-18T00:37:16.889Z,100764.53
2022-12-18T00:40:26.361Z,100766.72
2022-12-18T00:43:32.580Z,100776.46
2022-12-18T00:46:38.801Z,100764.28
2022-12-18T00:49:45.140Z,100771.05
2022-12-18T00:52:51.976Z,100768.45
2022-12-18T00:55:57.939Z,100771.30
2022-12-18T00:59:02.953Z,100779.41
2022-12-18T01:02:11.543Z,100789.25
2022-12-18T01:05:18.485Z,100797.38
2022-12-18T01:08:24.942Z,100792.70
2022-12-18T01:11:33.126Z,100803.16
2022-12-18T01:14:41.080Z,100802.92
2022-12-18T01:17:47.083Z,100813.14
2022-12-18T01:20:54.103Z,100816.08
2022-12-18T01:24:02.772Z,100827.40
2022-12-18T01:27:08.596Z,100837.48
2022-12-18T01:30:14.680Z,100838.34
2022-12-18T01:33:23.511Z,100859.12
2022-12-18T01:36:39.449Z,100847.78
2022-12-18T01:39:44.874Z,100851.58
2022-12-18T01:42:54.907Z,100861.80
2022-12-18T01:46:01.167Z,100873.73
2022-12-18T01:49:11.809Z,100868.95
2022-12-18T01:52:17.984Z,100869.80
2022-12-18T01:55:24.736Z,100864.75
2022-12-18T01:58:31.168Z,100863.75
2022-12-18T02:01:38.264Z,100861.05
2022-12-18T02:04:49.380Z,100859.09
2022-12-18T02:08:20.754Z,100866.94
2022-12-18T02:11:35.545Z,100872.47
2022-12-18T02:15:01.377Z,100875.30
2022-12-18T02:18:18.177Z,100875.77
2022-12-18T02:21:29.628Z,100867.17
2022-12-18T02:25:08.656Z,100874.27
2022-12-18T02:28:16.385Z,100885.36
2022-12-18T02:31:27.686Z,100894.35
2022-12-18T02:34:35.502Z,100897.77
2022-12-18T02:37:43.749Z,100901.08
2022-12-18T02:40:53.194Z,100913.60
2022-12-18T02:44:03.972Z,100918.37
2022-12-18T02:47:10.243Z,100917.02
2022-12-18T02:50:51.133Z,100913.84
2022-12-18T02:54:01.896Z,100910.73
2022-12-18T02:57:09.577Z,100913.20
2022-12-18T03:00:32.860Z,100925.37
2022-12-18T03:03:53.219Z,100929.66
2022-12-18T03:07:03.009Z,100927.08
2022-12-18T03:10:08.485Z,100928.03
2022-12-18T03:13:23.272Z,100929.02
2022-12-18T03:16:32.375Z,100935.19
2022-12-18T03:19:39.665Z,100927.20
2022-12-18T03:22:45.587Z,100933.60
2022-12-18T03:25:51.306Z,100935.20
2022-12-18T03:29:11.448Z,100947.25
2022-12-18T03:32:21.396Z,100963.48
2022-12-18T03:35:27.343Z,100970.36
2022-12-18T03:38:32.138Z,100976.76
2022-12-18T03:42:01.483Z,100985.35
2022-12-18T03:45:26.051Z,100977.75
2022-12-18T03:48:56.560Z,100986.82
2022-12-18T03:52:21.903Z,100995.44
2022-12-18T03:55:29.435Z,100994.56
2022-12-18T03:58:39.224Z,100992.58
2022-12-18T04:01:53.634Z,100987.39
2022-12-18T04:05:00.681Z,101006.67
2022-12-18T04:08:05.797Z,101005.43
2022-12-18T04:11:13.718Z,101007.48
2022-12-18T04:14:20.197Z,101014.36
2022-12-18T04:17:27.751Z,101013.72
2022-12-18T04:20:33.720Z,101010.76
2022-12-18T04:23:40.301Z,101016.39
2022-12-18T04:26:49.031Z,101022.03
2022-12-18T04:29:56.605Z,101050.52
2022-12-18T04:33:02.026Z,101041.54
2022-12-18T04:36:06.866Z,101048.95
2022-12-18T04:39:12.431Z,101050.19
2022-12-18T04:42:20.930Z,101056.94
2022-12-18T04:45:26.692Z,101070.69
2022-12-18T04:48:32.723Z,101073.98
2022-12-18T04:51:40.804Z,101069.75
2022-12-18T04:54:48.514Z,101073.48
2022-12-18T04:57:55.458Z,101083.27
2022-12-18T05:01:00.619Z,101104.63
2022-12-18T05:04:08.448Z,101087.50
2022-12-18T05:07:14.924Z,101109.70
2022-12-18T05:10:21.273Z,101095.94
2022-12-18T05:13:26.965Z,101109.52
2022-12-18T05:16:33.713Z,101107.03
2022-12-18T05:19:39.867Z,101125.22
2022-12-18T05:22:45.699Z,101121.45
2022-12-18T05:25:51.852Z,101123.02
2022-12-18T05:28:57.361Z,101137.52
2022-12-18T05:32:02.402Z,101130.97
2022-12-18T05:35:07.115Z,101134.94
2022-12-18T05:38:13.041Z,101148.84
2022-12-18T05:41:19.018Z,101142.78
2022-12-18T05:44:24.101Z,101157.73
2022-12-18T05:47:30.031Z,101165.17
2022-12-18T05:50:35.365Z,101171.56
2022-12-18T05:53:43.677Z,101176.30
2022-12-18T05:56:50.935Z,101185.66
2022-12-18T05:59:57.432Z,101185.23
2022-12-18T06:03:05.378Z,101196.40
2022-12-18T06:06:11.166Z,101207.36
2022-12-18T06:09:19.723Z,101207.92
2022-12-18T06:12:27.161Z,101218.52
2022-12-18T06:15:32.867Z,101226.05
2022-12-18T06:18:38.564Z,101240.33
2022-12-18T06:21:43.432Z,101241.57
2022-12-18T06:24:48.829Z,101241.09
2022-12-18T06:27:54.308Z,101247.92
2022-12-18T06:31:01.624Z,101256.32
2022-12-18T06:34:07.938Z,101263.44
2022-12-18T06:37:14.252Z,101266.14
2022-12-18T06:40:22.023Z,101257.30
2022-12-18T06:43:29.478Z,101268.84
2022-12-18T06:46:36.515Z,101287.28
2022-12-18T06:49:43.209Z,101280.84
2022-12-18T06:52:48.902Z,101279.59
2022-12-18T06:55:54.713Z,101288.00
2022-12-18T06:59:00.419Z,101289.75
2022-12-18T07:02:05.539Z,101289.68
2022-12-18T07:05:12.295Z,101292.17
2022-12-18T07:08:17.544Z,101294.50
2022-12-18T07:11:24.745Z,101317.14
2022-12-18T07:14:30.921Z,101300.27
2022-12-18T07:17:37.003Z,101314.44
2022-12-18T07:20:42.802Z,101320.34
2022-12-18T07:23:50.107Z,101312.81
2022-12-18T07:26:55.890Z,101322.16
2022-12-18T07:30:02.602Z,101323.14
2022-12-18T07:33:09.460Z,101328.53
2022-12-18T07:36:19.159Z,101336.23
2022-12-18T07:39:20.313Z,101340.00
2022-12-18T07:42:24.874Z,101345.50
2022-12-18T07:45:19.524Z,101338.65
2022-12-18T07:48:18.129Z,101365.91
2022-12-18T07:51:24.950Z,101347.80
2022-12-18T07:54:30.348Z,101354.55
2022-12-18T07:57:56.373Z,101351.27
2022-12-18T08:00:43.717Z,101358.80
2022-12-18T08:03:52.795Z,101359.17
2022-12-18T08:06:59.441Z,101366.70
2022-12-18T08:10:07.038Z,101371.31
2022-12-18T08:13:15.196Z,101370.76
2022-12-18T08:16:23.424Z,101381.15
2022-12-18T08:19:29.230Z,101375.97
2022-12-18T08:22:34.633Z,101393.50
2022-12-18T08:25:42.685Z,101398.02
2022-12-18T08:28:48.660Z,101395.13
2022-12-18T08:31:56.436Z,101392.53
2022-12-18T08:35:03.062Z,101396.38
2022-12-18T08:38:08.248Z,101396.38
2022-12-18T08:41:20.338Z,101394.86
2022-12-18T08:44:45.300Z,101408.70
2022-12-18T08:47:51.369Z,101413.73
2022-12-18T08:50:58.851Z,101415.64
2022-12-18T08:54:06.503Z,101414.98
2022-12-18T08:57:12.005Z,101426.44
2022-12-18T09:00:20.681Z,101415.34
2022-12-18T09:03:33.170Z,101410.03
2022-12-18T09:06:38.822Z,101413.61
2022-12-18T09:09:46.893Z,101419.79
2022-12-18T09:12:54.698Z,101417.19
2022-12-18T09:16:06.151Z,101423.62
2022-12-18T09:19:12.843Z,101421.20
2022-12-18T09:22:18.522Z,101436.23
2022-12-18T09:25:23.674Z,101434.51
2022-12-18T09:28:29.823Z,101440.09
2022-12-18T09:31:36.325Z,101433.91
2022-12-18T09:34:42.156Z,101433.50
2022-12-18T09:37:51.208Z,101437.55
2022-12-18T09:41:07.479Z,101437.27
2022-12-18T09:44:17.684Z,101438.89
2022-12-18T09:47:32.423Z,101432.52
2022-12-18T09:50:48.355Z,101446.56
2022-12-18T09:53:56.342Z,101444.44
2022-12-18T09:57:02.244Z,101448.28
2022-12-18T10:00:26.826Z,101460.19
2022-12-18T10:03:35.004Z,101462.17
2022-12-18T10:06:58.598Z,101452.69
2022-12-18T10:10:25.197Z,101456.72
2022-12-18T10:13:45.549Z,101465.25
2022-12-18T10:17:07.172Z,101474.92
2022-12-18T10:20:32.959Z,101459.98
2022-12-18T10:23:59.973Z,101474.02
2022-12-18T10:27:05.325Z,101478.05
2022-12-18T10:30:11.400Z,101475.25
2022-12-18T10:33:20.268Z,101475.09
2022-12-18T10:36:27.158Z,101487.39
2022-12-18T10:39:38.088Z,101498.34
2022-12-18T10:42:44.281Z,101493.22
2022-12-18T10:45:50.836Z,101489.44
2022-12-18T10:49:09.757Z,101505.51
2022-12-18T10:52:42.052Z,101500.76
2022-12-18T10:55:53.699Z,101509.18
2022-12-18T10:58:59.154Z,101513.86
2022-12-18T11:02:09.928Z,101509.48
2022-12-18T11:05:16.637Z,101519.41
2022-12-18T11:08:25.286Z,101516.39
2022-12-18T11:11:30.537Z,101518.79
2022-12-18T11:14:34.270Z,101547.52
2022-12-18T11:17:45.317Z,101530.11
2022-12-18T11:20:55.539Z,101519.20
2022-12-18T11:24:07.703Z,101531.16
2022-12-18T11:27:17.308Z,101521.82
2022-12-18T11:30:19.871Z,101533.08
2022-12-18T11:33:21.829Z,101551.38
2022-12-18T11:36:21.406Z,101534.29
2022-12-18T11:39:12.444Z,101547.02
2022-12-18T11:42:35.354Z,101549.63
2022-12-18T11:45:33.749Z,101610.00
2022-12-18T11:48:51.272Z,101554.92
2022-12-18T11:51:56.040Z,101556.34
2022-12-18T11:55:02.156Z,101562.27
2022-12-18T11:58:31.492Z,101579.83
2022-12-18T12:01:44.963Z,101576.41
2022-12-18T12:05:17.970Z,101578.80
2022-12-18T12:09:16.081Z,101580.61
2022-12-18T12:12:36.397Z,101592.40
2022-12-18T12:16:16.249Z,101591.44
2022-12-18T12:20:12.576Z,101618.95
2022-12-18T12:23:55.934Z,101619.83
2022-12-18T12:27:23.881Z,101625.52
2022-12-18T12:30:41.730Z,101633.97
2022-12-18T12:34:04.945Z,101628.20
2022-12-18T12:37:34.152Z,101640.06
2022-12-18T12:40:52.677Z,101654.20
2022-12-18T12:43:59.235Z,101658.98
2022-12-18T12:47:06.049Z,101660.55
2022-12-18T12:50:13.867Z,101656.67
2022-12-18T12:53:21.622Z,101660.87
2022-12-18T12:56:33.013Z,101663.75
2022-12-18T13:00:05.795Z,101680.51
2022-12-18T13:03:50.449Z,101683.62
2022-12-18T13:07:06.725Z,101685.11
2022-12-18T13:10:38.087Z,101702.07
2022-12-18T13:13:43.986Z,101693.66
2022-12-18T13:16:52.258Z,101707.31
2022-12-18T13:19:59.062Z,101711.95
2022-12-18T13:23:05.514Z,101716.70
2022-12-18T13:26:14.777Z,101701.50
2022-12-18T13:29:21.760Z,101711.33
2022-12-18T13:32:40.038Z,101710.05
2022-12-18T13:36:04.562Z,101715.81
2022-12-18T13:39:35.209Z,101731.55
2022-12-18T13:43:07.537Z,101729.12
2022-12-18T13:46:20.219Z,101757.02
2022-12-18T13:49:34.031Z,101750.36
2022-12-18T13:52:50.775Z,101758.07
2022-12-18T13:55:58.101Z,101754.25
2022-12-18T13:59:23.287Z,101770.94
2022-12-18T14:02:32.754Z,101760.22
2022-12-18T14:05:47.911Z,101767.02
2022-12-18T14:08:56.777Z,101775.70
2022-12-18T14:12:07.978Z,101770.40
2022-12-18T14:15:15.219Z,101784.36
2022-12-18T14:18:38.684Z,101779.94
2022-12-18T14:21:45.257Z,101801.61
2022-12-18T14:24:52.267Z,101797.91
2022-12-18T14:28:07.821Z,101811.15
2022-12-18T14:31:13.318Z,101821.96
2022-12-18T14:34:19.816Z,101838.73
2022-12-18T14:37:30.647Z,101827.80
2022-12-18T14:40:35.914Z,101820.80
2022-12-18T14:43:42.860Z,101818.64
2022-12-18T14:47:00.695Z,101829.18
2022-12-18T14:50:06.903Z,101841.23
2022-12-18T14:53:11.934Z,101835.50
2022-12-18T14:56:39.095Z,101856.92
2022-12-18T14:59:44.725Z,101849.81
2022-12-18T15:02:51.155Z,101846.31
2022-12-18T15:05:57.396Z,101854.36
2022-12-18T15:09:05.960Z,101848.05
2022-12-18T15:12:13.603Z,101854.30
2022-12-18T15:15:20.925Z,101875.84
2022-12-18T15:18:49.286Z,101862.69
2022-12-18T15:22:04.433Z,101875.36
2022-12-18T15:25:06.367Z,101879.38
2022-12-18T15:28:11.341Z,101872.15
2022-12-18T15:31:33.334Z,101885.14
2022-12-18T15:34:38.981Z,101890.65
2022-12-18T15:37:44.323Z,101886.69
2022-12-18T15:40:52.565Z,101894.73
2022-12-18T15:43:58.379Z,101923.81
2022-12-18T15:47:06.385Z,101902.47
2022-12-18T15:50:12.791Z,101899.91
2022-12-18T15:53:18.579Z,101920.44
2022-12-18T15:56:45.143Z,101935.59
2022-12-18T15:59:50.834Z,101924.46
2022-12-18T16:02:59.085Z,101943.38
2022-12-18T16:06:07.204Z,101938.96
2022-12-18T16:09:14.330Z,101956.41
2022-12-18T16:12:20.640Z,101958.60
2022-12-18T16:15:28.060Z,101953.72
2022-12-18T16:18:34.249Z,101965.37
2022-12-18T16:21:41.476Z,101943.96
2022-12-18T16:24:49.756Z,101962.30
2022-12-18T16:27:55.830Z,101967.08
2022-12-18T16:31:03.639Z,101973.73
2022-12-18T16:34:42.760Z,101981.20
2022-12-18T16:37:49.801Z,101997.59
2022-12-18T16:41:13.993Z,101991.70
2022-12-18T16:44:21.994Z,101993.38
2022-12-18T16:47:28.745Z,101991.12
2022-12-18T16:50:36.788Z,102006.16
2022-12-18T16:53:44.705Z,102039.33
2022-12-18T16:56:52.081Z,102026.42
2022-12-18T17:00:04.466Z,102034.88
2022-12-18T17:03:05.660Z,102049.25
2022-12-18T17:06:14.694Z,102023.98
2022-12-18T17:09:23.868Z,102035.63
2022-12-18T17:12:30.619Z,102042.72
2022-12-18T17:15:37.951Z,102046.25
2022-12-18T17:18:47.638Z,102042.66
2022-12-18T17:21:53.615Z,102051.23
2022-12-18T17:25:02.597Z,102053.91
2022-12-18T17:28:08.768Z,102064.53
2022-12-18T17:31:15.490Z,102059.22
2022-12-18T17:34:25.277Z,102061.91
2022-12-18T17:37:30.101Z,102073.53
2022-12-18T17:40:39.675Z,102086.65
2022-12-18T17:43:46.864Z,102090.45
2022-12-18T17:46:53.311Z,102106.19
2022-12-18T17:50:00.567Z,102091.98
2022-12-18T17:53:13.542Z,102099.14
2022-12-18T17:56:21.265Z,102094.80
2022-12-18T17:59:28.170Z,102100.61
2022-12-18T18:02:34.190Z,102101.89
2022-12-18T18:05:39.728Z,102112.00
2022-12-18T18:08:44.732Z,102117.25
2022-12-18T18:12:11.475Z,102117.82
2022-12-18T18:15:20.581Z,102116.20
2022-12-18T18:18:26.013Z,102129.13
2022-12-18T18:21:31.513Z,102132.19
2022-12-18T18:24:38.484Z,102130.91
2022-12-18T18:27:47.842Z,102129.56
2022-12-18T18:30:54.671Z,102129.07
2022-12-18T18:34:00.685Z,102139.75
2022-12-18T18:37:08.132Z,102144.55
2022-12-18T18:40:13.707Z,102151.20
2022-12-18T18:43:19.705Z,102149.75
2022-12-18T18:46:28.876Z,102152.86
2022-12-18T18:49:35.091Z,102149.30
2022-12-18T18:52:42.690Z,102161.03
2022-12-18T18:56:17.225Z,102157.52
2022-12-18T18:58:59.244Z,102166.41
2022-12-18T19:02:06.352Z,102178.55
2022-12-18T19:05:13.442Z,102169.23
2022-12-18T19:08:21.458Z,102179.52
2022-12-18T19:11:45.256Z,102170.69
2022-12-18T19:14:52.404Z,102181.48
2022-12-18T19:18:01.181Z,102175.31
2022-12-18T19:21:16.824Z,102183.77
2022-12-18T19:24:25.042Z,102179.34
2022-12-18T19:27:30.914Z,102178.86
2022-12-18T19:30:38.434Z,102198.93
2022-12-18T19:33:49.714Z,102198.53
2022-12-18T19:36:59.799Z,102196.41
2022-12-18T19:40:12.041Z,102188.47
2022-12-18T19:43:12.262Z,102204.07
2022-12-18T19:46:25.356Z,102211.23
2022-12-18T19:49:33.102Z,102205.98
2022-12-18T19:52:41.000Z,102214.54
2022-12-18T19:55:48.575Z,102223.14
2022-12-18T19:58:55.908Z,102219.19
2022-12-18T20:02:01.242Z,102229.92
2022-12-18T20:05:07.356Z,102242.94
2022-12-18T20:08:14.715Z,102229.87
2022-12-18T20:11:20.889Z,102248.63
2022-12-18T20:14:29.697Z,102260.71
2022-12-18T20:17:36.837Z,102255.95
2022-12-18T20:20:42.679Z,102255.12
2022-12-18T20:23:49.857Z,102264.02
2022-12-18T20:26:57.829Z,102279.17
2022-12-18T20:30:05.441Z,102273.41
2022-12-18T20:33:11.606Z,102268.65
2022-12-18T20:36:20.134Z,102274.13
2022-12-18T20:39:27.267Z,102276.42
2022-12-18T20:42:34.449Z,102270.81
2022-12-18T20:45:40.147Z,102297.85
2022-12-18T20:48:48.697Z,102292.26
2022-12-18T20:51:55.137Z,102317.94
2022-12-18T20:55:02.146Z,102297.14
2022-12-18T20:58:07.953Z,102301.36
2022-12-18T21:01:26.324Z,102297.05
2022-12-18T21:04:32.292Z,102310.61
2022-12-18T21:07:40.001Z,102301.86
2022-12-18T21:10:39.371Z,102302.41
2022-12-18T21:13:45.299Z,102309.16
2022-12-18T21:16:53.787Z,102316.30
2022-12-18T21:19:59.125Z,102318.45
2022-12-18T21:23:15.913Z,102325.09
2022-12-18T21:26:44.839Z,102321.28
2022-12-18T21:29:45.741Z,102322.91
2022-12-18T21:32:52.755Z,102321.97
2022-12-18T21:35:59.550Z,102324.30
2022-12-18T21:39:07.490Z,102329.23
2022-12-18T21:42:29.962Z,102330.16
2022-12-18T21:45:35.167Z,102337.17
2022-12-18T21:48:42.513Z,102343.33
2022-12-18T21:51:48.711Z,102342.37
2022-12-18T21:54:55.000Z,102345.81
2022-12-18T21:58:00.867Z,102347.95
2022-12-18T22:01:06.929Z,102352.81
2022-12-18T22:04:15.577Z,102360.31
2022-12-18T22:07:22.676Z,102361.06
2022-12-18T22:10:29.391Z,102356.88
2022-12-18T22:13:35.500Z,102351.41
2022-12-18T22:16:42.652Z,102367.77
2022-12-18T22:19:48.767Z,102359.52
2022-12-18T22:22:58.306Z,102365.16
2022-12-18T22:26:03.528Z,102362.72
2022-12-18T22:29:13.501Z,102382.64
2022-12-18T22:32:30.763Z,102386.18
2022-12-18T22:35:29.535Z,102387.47
2022-12-18T22:38:35.212Z,102395.86
2022-12-18T22:41:41.638Z,102387.34
2022-12-18T22:44:50.706Z,102388.16
2022-12-18T22:47:57.237Z,102394.01
2022-12-18T22:51:02.460Z,102410.52
2022-12-18T22:54:08.922Z,102402.97
2022-12-18T22:57:14.382Z,102394.11
2022-12-18T23:00:24.270Z,102400.72
2022-12-18T23:03:30.086Z,102422.50
2022-12-18T23:06:36.504Z,102409.53
2022-12-18T23:09:42.840Z,102415.34
2022-12-18T23:12:50.177Z,102413.95
2022-12-18T23:15:57.807Z,102409.76
2022-12-18T23:19:08.025Z,102418.60
2022-12-18T23:22:13.907Z,102428.35
2022-12-18T23:25:20.523Z,102432.87
2022-12-18T23:28:26.946Z,102442.67
2022-12-18T23:31:39.614Z,102447.09
2022-12-18T23:34:45.416Z,102450.63
2022-12-18T23:38:01.187Z,102455.00
2022-12-18T23:41:03.276Z,102458.81
2022-12-18T23:44:09.119Z,102468.16
2022-12-18T23:47:15.111Z,102464.08
2022-12-18T23:50:29.569Z,102464.13
2022-12-18T23:53:30.747Z,102477.28
2022-12-18T23:56:35.881Z,102474.34
2022-12-18T23:59:41.597Z,102485.25
